Billings, Montana
Current Conditions -  °F | °C
As of 8:53 AM on Friday 28 Nov 2014 (Local Time) from KBIL Reporting Station
Broken Clouds Broken Clouds  
Wind Chill: 44°   Ceiling: 20000
Heat Index: 49°   Visibility: 10mi
Dew Point: 27°   Wind: 13mph
Humidity: 43%   Direction: 240°WSW
Pressure: 29.63"   Gusts: NA
Location:  45.78°N, 108.5°W
Report Text: KBIL 281553Z 24011KT 10SM FEW085 SCT110 BKN200 09/M03 A2963 RMK AO2 SLP031 ACSL DSNT SE-SW T00941028
Loading
Personal Weather Stations






























Interactive Weather Map New forecast layout! Learn more

10-Day Weather Forecast

Advertisements
Track Severe Weather on mobile